createdAt,value
2019-01-20T00:00:45.095Z,23.73
2019-01-20T00:03:46.022Z,25.90
2019-01-20T00:06:33.883Z,25.73
2019-01-20T00:09:21.649Z,24.70
2019-01-20T00:12:09.581Z,26.87
2019-01-20T00:14:57.517Z,24.67
2019-01-20T00:17:45.213Z,25.40
2019-01-20T00:20:33.109Z,26.13
2019-01-20T00:23:20.651Z,26.20
2019-01-20T00:26:08.534Z,26.43
2019-01-20T00:28:56.432Z,24.60
2019-01-20T00:31:44.505Z,26.40
2019-01-20T00:34:32.364Z,25.50
2019-01-20T00:37:20.057Z,24.63
2019-01-20T00:40:16.204Z,25.27
2019-01-20T00:43:03.867Z,27.03
2019-01-20T00:45:51.660Z,26.90
2019-01-20T00:48:39.436Z,25.27
2019-01-20T00:51:27.216Z,26.87
2019-01-20T00:54:15.161Z,26.63
2019-01-20T00:57:02.997Z,26.40
2019-01-20T00:59:51.314Z,26.73
2019-01-20T01:02:39.270Z,26.43
2019-01-20T01:05:27.614Z,25.77
2019-01-20T01:08:15.586Z,27.07
2019-01-20T01:11:03.453Z,26.17
2019-01-20T01:13:51.018Z,27.93
2019-01-20T01:16:38.910Z,27.30
2019-01-20T01:19:26.717Z,26.63
2019-01-20T01:22:14.546Z,26.83
2019-01-20T01:25:02.481Z,27.07
2019-01-20T01:27:50.436Z,27.13
2019-01-20T01:30:38.169Z,26.67
2019-01-20T01:33:25.974Z,23.93
2019-01-20T01:36:13.822Z,25.93
2019-01-20T01:39:01.796Z,26.73
2019-01-20T01:41:49.558Z,27.50
2019-01-20T01:44:37.728Z,26.33
2019-01-20T01:47:25.563Z,26.00
2019-01-20T01:50:14.784Z,26.50
2019-01-20T01:53:02.648Z,27.80
2019-01-20T01:55:50.336Z,26.70
2019-01-20T01:58:38.318Z,26.50
2019-01-20T02:01:25.886Z,27.00
2019-01-20T02:04:13.921Z,26.93
2019-01-20T02:07:02.145Z,26.60
2019-01-20T02:09:50.077Z,25.93
2019-01-20T02:12:37.745Z,26.30
2019-01-20T02:15:25.554Z,25.07
2019-01-20T02:18:13.683Z,25.90
2019-01-20T02:21:01.659Z,25.77
2019-01-20T02:23:49.348Z,26.20
2019-01-20T02:26:37.082Z,26.07
2019-01-20T02:29:24.990Z,24.40
2019-01-20T02:32:12.815Z,24.60
2019-01-20T02:35:00.413Z,24.57
2019-01-20T02:37:48.237Z,24.87
2019-01-20T02:40:36.222Z,25.57
2019-01-20T02:43:24.196Z,25.47
2019-01-20T02:46:12.255Z,27.40
2019-01-20T02:49:00.132Z,27.07
2019-01-20T02:51:48.119Z,27.03
2019-01-20T02:54:35.921Z,26.17
2019-01-20T02:57:23.675Z,26.47
2019-01-20T03:00:14.666Z,26.37
2019-01-20T03:03:02.740Z,27.03
2019-01-20T03:05:50.516Z,24.13
2019-01-20T03:08:38.326Z,25.57
2019-01-20T03:11:26.181Z,24.17
2019-01-20T03:14:14.367Z,24.47
2019-01-20T03:17:02.273Z,24.97
2019-01-20T03:19:50.224Z,24.93
2019-01-20T03:22:38.311Z,25.37
2019-01-20T03:25:26.132Z,27.10
2019-01-20T03:28:13.908Z,25.20
2019-01-20T03:31:01.813Z,26.53
2019-01-20T03:33:49.668Z,25.20
2019-01-20T03:36:37.766Z,26.30
2019-01-20T03:39:25.701Z,24.97
2019-01-20T03:42:13.680Z,26.77
2019-01-20T03:45:01.761Z,25.77
2019-01-20T03:47:49.983Z,26.57
2019-01-20T03:50:37.721Z,25.10
2019-01-20T03:53:25.436Z,25.10
2019-01-20T03:56:13.013Z,25.13
2019-01-20T03:59:00.777Z,24.20
2019-01-20T04:01:48.303Z,26.13
2019-01-20T04:04:36.177Z,25.60
2019-01-20T04:07:24.133Z,25.83
2019-01-20T04:10:16.435Z,24.20
2019-01-20T04:13:04.669Z,24.57
2019-01-20T04:15:52.261Z,24.93
2019-01-20T04:18:39.840Z,26.07
2019-01-20T04:21:27.741Z,25.90
2019-01-20T04:24:15.671Z,26.20
2019-01-20T04:27:03.589Z,25.43
2019-01-20T04:29:51.301Z,25.87
2019-01-20T04:32:39.173Z,26.07
2019-01-20T04:35:27.178Z,26.23
2019-01-20T04:38:15.061Z,26.33
2019-01-20T04:41:02.640Z,26.90
2019-01-20T04:43:50.558Z,26.23
2019-01-20T04:46:38.268Z,25.60
2019-01-20T04:49:26.208Z,25.07
2019-01-20T04:52:14.128Z,25.57
2019-01-20T04:55:02.097Z,26.13
2019-01-20T04:57:51.738Z,25.77
2019-01-20T05:00:39.397Z,25.07
2019-01-20T05:03:27.421Z,26.53
2019-01-20T05:06:15.226Z,25.33
2019-01-20T05:09:04.025Z,26.63
2019-01-20T05:11:51.513Z,24.53
2019-01-20T05:14:39.218Z,27.10
2019-01-20T05:17:27.107Z,26.03
2019-01-20T05:20:15.604Z,26.87
2019-01-20T05:23:03.157Z,27.10
2019-01-20T05:25:50.942Z,25.93
2019-01-20T05:28:38.585Z,26.90
2019-01-20T05:31:26.620Z,26.63
2019-01-20T05:34:14.492Z,26.43
2019-01-20T05:37:02.452Z,26.17
2019-01-20T05:39:50.302Z,25.23
2019-01-20T05:42:45.669Z,25.67
2019-01-20T05:45:28.439Z,25.90
2019-01-20T05:48:16.081Z,26.20
2019-01-20T05:51:04.084Z,25.40
2019-01-20T05:53:51.779Z,26.03
2019-01-20T05:56:39.437Z,25.07
2019-01-20T05:59:27.257Z,26.17
2019-01-20T06:02:14.801Z,26.60
2019-01-20T06:05:02.611Z,26.13
2019-01-20T06:07:50.605Z,25.93
2019-01-20T06:10:38.621Z,26.00
2019-01-20T06:13:26.536Z,27.57
2019-01-20T06:16:14.492Z,26.10
2019-01-20T06:19:02.460Z,27.87
2019-01-20T06:21:50.056Z,28.30
2019-01-20T06:24:38.110Z,27.10
2019-01-20T06:27:26.193Z,27.03
2019-01-20T06:30:31.122Z,26.63
2019-01-20T06:33:18.956Z,25.70
2019-01-20T06:36:06.897Z,26.73
2019-01-20T06:38:55.008Z,27.07
2019-01-20T06:41:42.788Z,25.77
2019-01-20T06:44:30.589Z,25.17
2019-01-20T06:47:18.468Z,26.43
2019-01-20T06:50:09.716Z,27.97
2019-01-20T06:52:57.551Z,28.23
2019-01-20T06:55:45.314Z,26.07
2019-01-20T06:58:32.992Z,29.43
2019-01-20T07:01:20.607Z,28.53
2019-01-20T07:04:08.579Z,26.60
2019-01-20T07:06:56.521Z,38.63
2019-01-20T07:09:44.356Z,28.37
2019-01-20T07:12:32.217Z,28.30
2019-01-20T07:15:22.037Z,28.67
2019-01-20T07:18:09.675Z,28.97
2019-01-20T07:20:57.681Z,29.93
2019-01-20T07:23:45.753Z,30.63
2019-01-20T07:26:33.904Z,29.80
2019-01-20T07:29:21.569Z,29.27
2019-01-20T07:32:09.235Z,28.33
2019-01-20T07:34:56.853Z,28.33
2019-01-20T07:37:45.135Z,28.50
2019-01-20T07:40:32.889Z,27.10
2019-01-20T07:43:20.849Z,27.37
2019-01-20T07:46:08.785Z,26.60
2019-01-20T07:48:56.520Z,26.47
2019-01-20T07:51:44.209Z,29.10
2019-01-20T07:54:32.295Z,27.00
2019-01-20T07:57:20.337Z,29.23
2019-01-20T08:00:17.013Z,26.93
2019-01-20T08:03:04.516Z,27.97
2019-01-20T08:05:52.601Z,29.03
2019-01-20T08:08:40.536Z,27.47
2019-01-20T08:11:28.742Z,28.03
2019-01-20T08:14:17.092Z,27.57
2019-01-20T08:17:05.328Z,27.67
2019-01-20T08:19:53.213Z,27.80
2019-01-20T08:22:40.907Z,26.40
2019-01-20T08:25:28.762Z,26.93
2019-01-20T08:28:16.672Z,26.17
2019-01-20T08:31:04.444Z,26.53
2019-01-20T08:33:52.144Z,26.33
2019-01-20T08:36:40.088Z,26.50
2019-01-20T08:39:28.434Z,27.70
2019-01-20T08:42:16.037Z,27.97
2019-01-20T08:45:07.225Z,26.77
2019-01-20T08:47:57.995Z,26.50
2019-01-20T08:50:45.744Z,26.40
2019-01-20T08:53:33.599Z,26.80
2019-01-20T08:56:21.729Z,26.20
2019-01-20T08:59:09.644Z,27.10
2019-01-20T09:01:57.604Z,26.57
2019-01-20T09:04:45.578Z,24.27
2019-01-20T09:07:33.306Z,25.00
2019-01-20T09:10:23.584Z,25.33
2019-01-20T09:13:11.561Z,25.13
2019-01-20T09:15:59.305Z,25.83
2019-01-20T09:18:47.512Z,24.23
2019-01-20T09:21:35.330Z,26.33
2019-01-20T09:24:23.037Z,26.93
2019-01-20T09:27:10.961Z,27.10
2019-01-20T09:29:59.204Z,25.37
2019-01-20T09:32:46.825Z,25.93
2019-01-20T09:35:34.813Z,24.80
2019-01-20T09:38:22.732Z,27.07
2019-01-20T09:41:10.614Z,25.97
2019-01-20T09:43:58.215Z,26.23
2019-01-20T09:46:46.129Z,25.70
2019-01-20T09:49:34.077Z,26.37
2019-01-20T09:52:22.748Z,25.17
2019-01-20T09:55:12.010Z,26.00
2019-01-20T09:57:59.765Z,26.70
2019-01-20T10:00:47.501Z,25.23
2019-01-20T10:03:35.407Z,26.03
2019-01-20T10:06:23.228Z,25.00
2019-01-20T10:09:11.062Z,26.80
2019-01-20T10:11:58.767Z,26.83
2019-01-20T10:14:46.809Z,25.87
2019-01-20T10:17:34.696Z,26.20
2019-01-20T10:20:30.925Z,25.20
2019-01-20T10:23:19.405Z,25.27
2019-01-20T10:26:07.365Z,24.23
2019-01-20T10:28:55.059Z,24.03
2019-01-20T10:31:43.097Z,24.40
2019-01-20T10:34:31.344Z,25.80
2019-01-20T10:37:19.504Z,26.93
2019-01-20T10:40:08.271Z,27.60
2019-01-20T10:42:56.280Z,26.30
2019-01-20T10:45:44.397Z,25.57
2019-01-20T10:48:32.414Z,26.00
2019-01-20T10:51:20.277Z,26.20
2019-01-20T10:54:08.340Z,27.07
2019-01-20T10:56:56.543Z,27.60
2019-01-20T10:59:44.568Z,27.97
2019-01-20T11:02:32.257Z,26.47
2019-01-20T11:05:24.586Z,27.53
2019-01-20T11:08:09.881Z,27.63
2019-01-20T11:10:57.778Z,27.27
2019-01-20T11:13:45.308Z,26.27
2019-01-20T11:16:33.243Z,27.13
2019-01-20T11:19:21.316Z,27.83
2019-01-20T11:22:09.057Z,26.30
2019-01-20T11:24:56.776Z,26.10
2019-01-20T11:27:44.530Z,26.37
2019-01-20T11:30:45.594Z,27.40
2019-01-20T11:33:33.718Z,25.03
2019-01-20T11:36:21.800Z,24.93
2019-01-20T11:39:10.617Z,24.53
2019-01-20T11:41:58.484Z,25.47
2019-01-20T11:44:46.344Z,26.17
2019-01-20T11:47:41.772Z,25.87
2019-01-20T11:50:25.019Z,26.53
2019-01-20T11:53:13.266Z,26.10
2019-01-20T11:56:01.847Z,26.23
2019-01-20T11:58:49.498Z,26.57
2019-01-20T12:01:44.509Z,26.70
2019-01-20T12:04:32.845Z,25.80
2019-01-20T12:07:21.038Z,25.73
2019-01-20T12:10:10.632Z,25.80
2019-01-20T12:13:06.190Z,26.03
2019-01-20T12:15:54.139Z,25.47
2019-01-20T12:18:44.308Z,25.93
2019-01-20T12:21:31.912Z,24.40
2019-01-20T12:24:19.586Z,25.07
2019-01-20T12:27:07.484Z,25.33
2019-01-20T12:29:58.321Z,24.43
2019-01-20T12:32:46.240Z,26.20
2019-01-20T12:35:33.932Z,24.27
2019-01-20T12:38:21.770Z,26.97
2019-01-20T12:41:09.432Z,24.43
2019-01-20T12:43:57.243Z,25.50
2019-01-20T12:46:44.841Z,24.73
2019-01-20T12:49:33.206Z,24.70
2019-01-20T12:52:24.149Z,24.80
2019-01-20T12:55:15.314Z,24.63
2019-01-20T12:58:03.645Z,25.60
2019-01-20T13:00:54.437Z,24.50
2019-01-20T13:03:42.170Z,26.23
2019-01-20T13:06:30.530Z,26.27
2019-01-20T13:09:18.948Z,24.70
2019-01-20T13:12:07.771Z,23.57
2019-01-20T13:14:55.516Z,25.63
2019-01-20T13:17:43.048Z,25.70
2019-01-20T13:20:34.092Z,25.90
2019-01-20T13:23:22.091Z,24.67
2019-01-20T13:26:09.913Z,25.40
2019-01-20T13:28:58.257Z,25.13
2019-01-20T13:31:46.169Z,23.80
2019-01-20T13:34:34.309Z,25.03
2019-01-20T13:37:22.109Z,24.50
2019-01-20T13:40:16.035Z,24.30
2019-01-20T13:43:04.173Z,25.43
2019-01-20T13:45:51.678Z,25.50
2019-01-20T13:48:39.549Z,25.47
2019-01-20T13:51:27.176Z,23.50
2019-01-20T13:54:15.208Z,25.13
2019-01-20T13:57:03.081Z,25.80
2019-01-20T13:59:51.094Z,25.43
2019-01-20T14:02:39.368Z,26.23
2019-01-20T14:05:27.112Z,24.43
2019-01-20T14:08:14.959Z,26.63
2019-01-20T14:11:03.393Z,25.17
2019-01-20T14:13:51.695Z,27.53
2019-01-20T14:16:39.805Z,25.17
2019-01-20T14:19:29.087Z,25.40
2019-01-20T14:22:24.489Z,24.63
2019-01-20T14:25:17.375Z,24.07
2019-01-20T14:28:06.715Z,25.10
2019-01-20T14:30:55.234Z,26.53
2019-01-20T14:33:43.268Z,25.00
2019-01-20T14:36:31.297Z,23.80
2019-01-20T14:39:19.332Z,25.87
2019-01-20T14:42:07.067Z,25.80
2019-01-20T14:45:00.905Z,26.33
2019-01-20T14:47:44.931Z,25.50
2019-01-20T14:50:32.733Z,27.43
2019-01-20T14:53:20.290Z,26.57
2019-01-20T14:56:08.321Z,26.60
2019-01-20T14:58:56.291Z,26.90
2019-01-20T15:01:44.345Z,25.87
2019-01-20T15:04:32.122Z,26.83
2019-01-20T15:07:19.757Z,26.43
2019-01-20T15:10:10.793Z,26.97
2019-01-20T15:12:58.435Z,27.00
2019-01-20T15:15:46.342Z,27.07
2019-01-20T15:18:34.150Z,26.67
2019-01-20T15:21:22.100Z,28.37
2019-01-20T15:24:10.058Z,28.10
2019-01-20T15:26:57.836Z,27.63
2019-01-20T15:29:45.915Z,28.47
2019-01-20T15:32:34.146Z,29.00
2019-01-20T15:35:22.191Z,29.27
2019-01-20T15:38:10.060Z,30.67
2019-01-20T15:40:57.715Z,28.57
2019-01-20T15:43:45.480Z,28.97
2019-01-20T15:46:33.544Z,29.00
2019-01-20T15:49:21.309Z,29.50
2019-01-20T15:52:09.432Z,28.10
2019-01-20T15:54:57.173Z,29.83
2019-01-20T15:57:45.060Z,30.27
2019-01-20T16:00:33.071Z,31.30
2019-01-20T16:03:20.708Z,30.67
2019-01-20T16:06:08.738Z,30.03
2019-01-20T16:08:57.034Z,31.87
2019-01-20T16:11:45.068Z,29.57
2019-01-20T16:14:32.912Z,29.90
2019-01-20T16:17:20.793Z,30.93
2019-01-20T16:20:19.329Z,29.57
2019-01-20T16:23:07.219Z,30.17
2019-01-20T16:25:55.267Z,32.50
2019-01-20T16:28:43.357Z,33.20
2019-01-20T16:31:32.033Z,32.10
2019-01-20T16:34:20.033Z,30.93
2019-01-20T16:37:08.047Z,31.77
2019-01-20T16:39:56.148Z,30.37
2019-01-20T16:42:45.992Z,29.43
2019-01-20T16:45:42.082Z,30.40
2019-01-20T16:48:27.424Z,31.30
2019-01-20T16:51:15.112Z,29.67
2019-01-20T16:54:02.802Z,29.83
2019-01-20T16:56:50.667Z,31.07
2019-01-20T16:59:38.309Z,29.90
2019-01-20T17:02:26.106Z,31.43
2019-01-20T17:05:14.551Z,30.10
2019-01-20T17:08:02.757Z,30.87
2019-01-20T17:10:50.407Z,28.87
2019-01-20T17:13:38.963Z,27.10
2019-01-20T17:16:26.615Z,29.33
2019-01-20T17:19:17.688Z,39.17
2019-01-20T17:22:05.780Z,29.97
2019-01-20T17:24:53.748Z,30.40
2019-01-20T17:27:41.927Z,30.87
2019-01-20T17:30:32.563Z,31.80
2019-01-20T17:33:20.456Z,29.90
2019-01-20T17:36:27.884Z,28.53
2019-01-20T17:39:15.786Z,29.57
2019-01-20T17:42:04.082Z,30.40
2019-01-20T17:44:51.985Z,30.03
2019-01-20T17:47:39.732Z,31.80
2019-01-20T17:50:30.351Z,30.87
2019-01-20T17:53:18.023Z,31.50
2019-01-20T17:56:05.885Z,31.67
2019-01-20T17:58:53.617Z,31.07
2019-01-20T18:01:41.799Z,30.87
2019-01-20T18:04:29.681Z,33.23
2019-01-20T18:07:17.603Z,33.80
2019-01-20T18:10:11.372Z,33.97
2019-01-20T18:12:59.511Z,29.97
2019-01-20T18:15:54.073Z,32.83
2019-01-20T18:18:37.543Z,31.40
2019-01-20T18:21:25.248Z,31.03
2019-01-20T18:24:13.122Z,32.00
2019-01-20T18:27:01.185Z,31.60
2019-01-20T18:29:49.312Z,34.20
2019-01-20T18:32:37.228Z,32.60
2019-01-20T18:35:26.448Z,32.27
2019-01-20T18:38:14.419Z,32.17
2019-01-20T18:41:02.205Z,33.40
2019-01-20T18:43:50.085Z,34.23
2019-01-20T18:46:38.145Z,32.17
2019-01-20T18:49:25.784Z,33.13
2019-01-20T18:52:13.583Z,32.27
2019-01-20T18:55:01.449Z,33.90
2019-01-20T18:57:49.298Z,33.90
2019-01-20T19:00:43.009Z,33.47
2019-01-20T19:03:31.127Z,33.90
2019-01-20T19:06:18.970Z,32.53
2019-01-20T19:09:07.189Z,33.37
2019-01-20T19:11:54.838Z,34.90
2019-01-20T19:14:42.596Z,33.63
2019-01-20T19:17:30.584Z,33.53
2019-01-20T19:20:21.186Z,33.30
2019-01-20T19:23:08.776Z,33.00
2019-01-20T19:25:56.532Z,33.03
2019-01-20T19:28:44.283Z,33.40
2019-01-20T19:31:32.299Z,33.43
2019-01-20T19:34:20.362Z,34.57
2019-01-20T19:37:08.089Z,34.37
2019-01-20T19:39:55.886Z,36.37
2019-01-20T19:42:43.938Z,33.37
2019-01-20T19:45:31.856Z,32.80
2019-01-20T19:48:20.164Z,34.60
2019-01-20T19:51:08.489Z,32.70
2019-01-20T19:53:56.341Z,33.17
2019-01-20T19:56:44.086Z,35.23
2019-01-20T19:59:31.743Z,37.37
2019-01-20T20:02:19.672Z,32.43
2019-01-20T20:05:13.177Z,34.90
2019-01-20T20:08:01.059Z,33.23
2019-01-20T20:10:48.824Z,33.00
2019-01-20T20:13:36.612Z,33.70
2019-01-20T20:16:24.334Z,33.23
2019-01-20T20:19:11.991Z,34.43
2019-01-20T20:21:59.928Z,33.40
2019-01-20T20:24:47.511Z,35.37
2019-01-20T20:27:35.145Z,34.30
2019-01-20T20:30:28.302Z,33.97
2019-01-20T20:33:16.274Z,34.00
2019-01-20T20:36:04.503Z,34.73
2019-01-20T20:38:52.132Z,37.13
2019-01-20T20:41:40.070Z,37.23
2019-01-20T20:44:28.044Z,36.87
2019-01-20T20:47:15.755Z,35.77
2019-01-20T20:50:04.957Z,35.20
2019-01-20T20:52:52.622Z,36.13
2019-01-20T20:55:40.550Z,35.00
2019-01-20T20:58:28.479Z,35.47
2019-01-20T21:01:16.464Z,34.50
2019-01-20T21:04:04.158Z,36.87
2019-01-20T21:06:51.971Z,36.73
2019-01-20T21:09:40.337Z,36.03
2019-01-20T21:12:28.262Z,37.60
2019-01-20T21:15:17.033Z,35.07
2019-01-20T21:18:04.784Z,34.30
2019-01-20T21:20:52.802Z,34.90
2019-01-20T21:23:40.570Z,35.23
2019-01-20T21:26:28.083Z,35.60
2019-01-20T21:29:16.133Z,33.93
2019-01-20T21:32:04.274Z,36.97
2019-01-20T21:34:51.927Z,36.00
2019-01-20T21:37:39.638Z,35.47
2019-01-20T21:40:27.711Z,35.37
2019-01-20T21:43:15.821Z,34.63
2019-01-20T21:46:04.208Z,36.17
2019-01-20T21:48:52.167Z,35.77
2019-01-20T21:51:40.089Z,37.40
2019-01-20T21:54:28.228Z,35.70
2019-01-20T21:57:16.109Z,35.73
2019-01-20T22:00:06.981Z,36.30
2019-01-20T22:02:54.629Z,35.37
2019-01-20T22:05:42.372Z,37.43
2019-01-20T22:08:30.428Z,35.93
2019-01-20T22:11:18.270Z,35.07
2019-01-20T22:14:06.123Z,36.53
2019-01-20T22:16:53.608Z,34.47
2019-01-20T22:19:41.233Z,34.60
2019-01-20T22:22:29.137Z,34.10
2019-01-20T22:25:16.932Z,34.83
2019-01-20T22:28:05.673Z,36.10
2019-01-20T22:30:53.369Z,34.10
2019-01-20T22:33:41.161Z,34.73
2019-01-20T22:36:28.958Z,33.57
2019-01-20T22:39:16.969Z,33.60
2019-01-20T22:42:04.876Z,35.50
2019-01-20T22:44:52.600Z,34.63
2019-01-20T22:47:40.322Z,33.40
2019-01-20T22:50:28.435Z,34.93
2019-01-20T22:53:16.197Z,33.67
2019-01-20T22:56:04.012Z,33.90
2019-01-20T22:58:51.699Z,33.20
2019-01-20T23:01:41.320Z,33.93
2019-01-20T23:04:28.936Z,33.67
2019-01-20T23:07:16.928Z,31.87
2019-01-20T23:10:06.439Z,35.10
2019-01-20T23:12:54.179Z,34.67
2019-01-20T23:15:42.004Z,33.10
2019-01-20T23:18:29.825Z,32.30
2019-01-20T23:21:17.493Z,32.03
2019-01-20T23:24:05.529Z,34.33
2019-01-20T23:26:53.352Z,34.37
2019-01-20T23:29:41.180Z,33.40
2019-01-20T23:32:29.204Z,34.47
2019-01-20T23:35:16.878Z,33.57
2019-01-20T23:38:04.997Z,34.47
2019-01-20T23:40:52.858Z,30.57
2019-01-20T23:43:40.664Z,32.30
2019-01-20T23:46:28.804Z,31.20
2019-01-20T23:49:16.700Z,32.20
2019-01-20T23:52:04.912Z,33.53
2019-01-20T23:54:52.792Z,32.30
2019-01-20T23:57:40.621Z,31.73
